ENAN/ANX METAR and TAF weather

Enter ICAO airport designator
Station Type Date Time Source
ENAN METAR 2021/07/24 19:20 UTC NOAA

ENAN 241920Z AUTO 23006KT 200V280 3100 -RA OVC006/// 11/10 Q1013 RERA


Station Type Date Time Source
ENAN Decoded METAR 2021/07/24 19:20 UTC NOAA

Andoya, Norway (ENAN) 69-18N 016-09E 14M
Jul 24, 2021 - 03:20 PM EDT / 2021.07.24 1920 UTC
Wind: from the SW (230 degrees) at 7 MPH (6 KT) (direction variable):0
Visibility: 1 mile(s):0
Sky conditions: overcast
Weather: light rain
Temperature: 51 F (11 C)
Dew Point: 50 F (10 C)
Relative Humidity: 93%
Pressure (altimeter): 29.91 in. Hg (1013 hPa)
ob: ENAN 241920Z AUTO 23006KT 200V280 3100 -RA OVC006/// 11/10 Q1013 RERA
cycle: 19

Station Type Date Time Source
ENAN TAF 2021/07/24 18:57 UTC NOAA

TAF TAF ENAN 241700Z 2418/2518 25008KT 9999 FEW006 SCT010 BKN012
TEMPO 2418/2512 24018KT 2000 SHRA BKN004
BECMG 2512/2514 FEW005 BKN018

Example: see airport list